Latest Weather Observations for Sydney Airport

IDN60801

Issued at 11:33 pm EST Tuesday 27 September 2016 (issued every 30 minutes, with the page automatically refreshed every 10 minutes)

About weather observations | Map of weather stations | Latest weather observations for NSW | Other Formats
Station Details ID: 066037 Name: SYDNEY AIRPORT AMO Lat: -33.95 Lon: 151.17 Height: 6.0 m
Data from the previous 72 hours. | See also: Recent months at Sydney Airport
Date/Time
EST
Temp
°C
App
Temp
°C
Dew
Point
°C
Rel
Hum
%
Delta-T
°C
Wind Press
QNH
hPa
Press
MSL
hPa
Rain since
9am
mm
Dir  Spd
km/h
Gust
km/h
Spd
kts
Gust
kts
27/11:00pm 12.2 7.3 2.0 49 4.4 WSW 17 22 9 12 1013.2 1013.2 0.0
27/10:30pm 12.7 8.1 1.4 46 4.8 WSW 15 19 8 10 1013.1 1013.1 0.0
27/10:00pm 13.0 7.9 0.9 43 5.1 WSW 17 19 9 10 1012.9 1012.9 0.0
27/09:30pm 13.2 8.2 1.2 44 5.1 WSW 17 24 9 13 1012.9 1012.9 0.0
27/09:00pm 13.6 8.5 0.9 42 5.4 WSW 17 35 9 19 1012.7 1012.7 0.0
27/08:30pm 14.2 9.5 1.2 41 5.6 WSW 15 19 8 10 1012.7 1012.7 0.0
27/08:00pm 14.6 9.8 0.5 38 6.0 WSW 15 37 8 20 1012.5 1012.5 0.0
27/07:30pm 15.1 9.0 0.3 36 6.3 WSW 22 28 12 15 1012.0 1012.0 0.0
27/07:00pm 15.8 9.5 -1.0 31 7.0 WSW 22 28 12 15 1011.5 1011.5 0.0
27/06:30pm 16.2 8.6 -1.8 29 7.4 WSW 28 43 15 23 1011.1 1011.1 0.0
27/06:00pm 16.6 7.0 -1.8 28 7.6 WSW 39 50 21 27 1010.6 1010.6 0.0
27/05:48pm 16.9 8.1 -1.2 29 7.6 WSW 35 54 19 29 1010.4 1010.4 0.0
27/05:30pm 17.3 7.7 -1.6 27 7.9 WSW 39 52 21 28 1010.0 1010.0 0.0
27/05:00pm 17.9 6.5 -2.0 26 8.3 WSW 48 59 26 32 1009.4 1009.4 0.0
27/04:30pm 18.8 8.2 -3.1 22 9.0 W 43 57 23 31 1008.8 1008.8 0.0
27/04:18pm 19.1 9.2 -3.8 21 9.3 WSW 39 59 21 32 1008.6 1008.6 0.0
27/04:00pm 19.2 9.2 -1.8 24 8.9 WSW 41 54 22 29 1008.3 1008.3 0.0
27/03:30pm 19.8 9.0 -5.5 17 10.0 WSW 43 61 23 33 1007.6 1007.6 0.0
27/03:00pm 19.6 9.1 -1.3 24 9.0 SW 44 57 24 31 1007.0 1007.0 0.0
27/02:47pm 20.7 11.0 -5.2 17 10.4 WSW 37 56 20 30 1006.9 1006.9 0.0
27/02:30pm 20.2 10.2 -1.7 23 9.4 WSW 41 54 22 29 1006.5 1006.5 0.0
27/02:00pm 21.5 10.5 -5.6 16 10.9 WSW 44 57 24 31 1006.3 1006.3 0.0
27/01:47pm 21.3 10.0 -4.6 17 10.6 WSW 46 65 25 35 1006.2 1006.2 0.0
27/01:30pm 21.1 10.8 -1.4 22 9.8 WSW 43 56 23 30 1006.1 1006.1 0.0
27/01:08pm 21.8 13.5 -0.4 22 9.9 WSW 33 54 18 29 1006.1 1006.1 0.0
27/01:00pm 21.1 13.2 1.3 27 9.1 WSW 32 46 17 25 1005.9 1005.9 0.0
27/12:30pm 22.0 14.0 0.4 24 9.8 W 32 44 17 24 1006.0 1006.0 0.0
27/12:00pm 22.7 13.0 0.7 23 10.1 W 41 61 22 33 1006.3 1006.3 0.0
27/11:50am 22.0 14.0 0.4 24 9.8 WNW 32 57 17 31 1006.4 1006.4 0.0
27/11:30am 21.0 14.7 3.7 32 8.3 WNW 26 37 14 20 1006.8 1006.8 0.0
27/11:00am 21.7 15.6 3.0 29 8.9 NW 24 33 13 18 1007.3 1007.3 0.0
27/10:30am 21.0 15.8 3.4 31 8.4 N 20 28 11 15 1007.6 1007.6 0.0
27/10:00am 20.3 14.3 3.2 32 8.1 N 24 32 13 17 1007.8 1007.8 0.0
27/09:30am 19.4 12.6 2.9 33 7.7 N 28 33 15 18 1008.6 1008.6 0.0
27/09:00am 18.6 11.8 3.2 36 7.2 N 28 33 15 18 1009.3 1009.3 0.0
27/08:30am 17.5 11.5 3.2 38 6.6 N 24 32 13 17 1010.0 1010.0 0.0
27/08:00am 15.6 10.5 3.3 43 5.6 N 19 26 10 14 1010.1 1010.1 0.0
27/07:30am 14.2 9.5 3.3 48 4.9 NNW 17 24 9 13 1010.7 1010.7 0.0
27/07:00am 13.6 9.7 3.6 51 4.5 NNW 13 17 7 9 1011.0 1011.0 0.0
27/06:30am 12.9 9.1 3.8 54 4.1 N 13 15 7 8 1011.0 1011.0 0.0
27/06:00am 12.0 9.0 4.3 59 3.5 N 9 13 5 7 1011.1 1011.1 0.0
27/05:30am 11.7 7.1 3.6 57 3.6 NNW 17 20 9 11 1011.2 1011.2 0.0
27/05:00am 11.1 6.5 3.6 60 3.3 NW 17 20 9 11 1011.3 1011.3 0.0
27/04:30am 10.9 5.6 3.1 58 3.4 NW 20 24 11 13 1011.4 1011.4 0.0
27/04:00am 11.1 7.2 3.4 59 3.4 N 13 17 7 9 1011.2 1011.2 0.0
27/03:30am 11.0 6.3 2.9 57 3.5 NW 17 20 9 11 1011.5 1011.5 0.0
27/03:00am 11.2 6.5 2.9 56 3.6 NW 17 19 9 10 1011.5 1011.5 0.0
27/02:30am 11.5 6.4 3.0 56 3.7 WNW 19 24 10 13 1011.8 1011.8 0.0
27/02:00am 11.6 6.3 2.9 55 3.8 WNW 20 26 11 14 1011.9 1011.9 0.0
27/01:30am 12.1 5.6 2.7 52 4.1 W 26 30 14 16 1012.0 1012.0 0.0
27/01:00am 12.7 5.8 2.7 50 4.4 W 28 33 15 18 1012.0 1012.0 0.0
27/12:30am 13.1 6.5 2.0 47 4.8 W 26 41 14 22 1012.2 1012.2 0.0
27/12:00am 13.3 7.9 2.3 47 4.8 WNW 20 26 11 14 1012.6 1012.6 0.0
 
Date/Time
EST
Temp
°C
App
Temp
°C
Dew
Point
°C
Rel
Hum
%
Delta-T
°C
Wind Press
QNH
hPa
Press
MSL
hPa
Rain since
9am
mm
Dir  Spd
km/h
Gust
km/h
Spd
kts
Gust
kts
26/11:30pm 13.6 8.5 2.8 48 4.8 WNW 19 26 10 14 1012.6 1012.6 0.0
26/11:00pm 14.4 9.6 2.4 44 5.3 WNW 17 20 9 11 1012.6 1012.6 0.0
26/10:30pm 14.5 9.3 2.3 43 5.4 WNW 19 24 10 13 1012.8 1012.8 0.0
26/10:00pm 14.8 9.5 2.1 42 5.6 WNW 19 26 10 14 1012.8 1012.8 0.0
26/09:30pm 15.1 9.9 2.3 42 5.7 WNW 19 28 10 15 1012.8 1012.8 0.0
26/09:00pm 15.0 10.5 2.1 41 5.7 WNW 15 22 8 12 1012.8 1012.8 0.0
26/08:30pm 15.0 10.9 2.4 42 5.6 W 13 17 7 9 1012.7 1012.7 0.0
26/08:00pm 15.3 11.0 3.2 44 5.5 W 15 19 8 10 1012.4 1012.4 0.0
26/07:30pm 15.5 12.8 7.2 57 4.1 W 11 20 6 11 1012.2 1012.2 0.0
26/07:00pm 15.7 13.2 8.2 61 3.8 SSW 11 20 6 11 1012.0 1012.0 0.0
26/06:30pm 16.1 13.2 8.0 58 4.1 SSW 13 20 7 11 1011.6 1011.6 0.0
26/06:00pm 16.3 12.8 8.7 60 3.9 SSW 17 19 9 10 1011.0 1011.0 0.0
26/05:30pm 16.7 13.4 8.0 56 4.4 SSE 15 19 8 10 1010.6 1010.6 0.0
26/05:00pm 16.6 12.4 8.4 58 4.2 S 20 28 11 15 1010.2 1010.2 0.0
26/04:30pm 16.9 12.5 7.6 54 4.7 S 20 28 11 15 1009.7 1009.7 0.0
26/04:00pm 17.6 13.8 7.5 51 5.1 SSE 17 22 9 12 1009.2 1009.2 0.0
26/03:30pm 18.2 14.2 6.5 46 5.8 SE 17 22 9 12 1009.1 1009.1 0.0
26/03:00pm 18.4 13.9 7.1 47 5.7 SE 20 28 11 15 1009.0 1009.0 0.0
26/02:30pm 18.3 13.4 5.1 41 6.4 SE 20 28 11 15 1009.2 1009.2 0.0
26/02:00pm 18.1 13.0 3.9 39 6.7 ESE 20 24 11 13 1009.5 1009.5 0.0
26/01:30pm 18.1 13.0 4.2 39 6.6 SE 20 26 11 14 1009.8 1009.8 0.0
26/01:00pm 18.7 14.4 5.1 40 6.6 SE 17 22 9 12 1010.1 1010.1 0.0
26/12:30pm 17.9 13.3 3.9 39 6.6 SE 17 22 9 12 1010.5 1010.5 0.0
26/12:00pm 18.5 14.4 4.5 39 6.7 SE 15 19 8 10 1010.9 1010.9 0.0
26/11:30am 17.5 13.2 3.5 39 6.5 W 15 35 8 19 1011.3 1011.3 0.0
26/11:00am 18.4 13.6 2.8 35 7.2 W 17 26 9 14 1011.7 1011.7 0.0
26/10:30am 17.4 12.6 2.4 36 6.8 WSW 17 37 9 20 1012.2 1012.2 0.0
26/10:00am 17.0 11.5 3.9 41 6.1 W 22 30 12 16 1012.6 1012.6 0.0
26/09:30am 16.0 10.0 3.3 42 5.8 WSW 24 30 13 16 1012.8 1012.8 0.0
26/09:00am 15.3 9.3 3.5 45 5.4 WSW 24 30 13 16 1013.1 1013.1 5.8
26/08:30am 14.8 8.8 3.3 46 5.2 W 24 32 13 17 1013.2 1013.2 5.8
26/08:00am 14.7 7.9 3.2 46 5.2 W 28 37 15 20 1013.3 1013.3 5.8
26/07:30am 14.0 6.6 4.2 51 4.5 SW 32 41 17 22 1013.3 1013.3 5.8
26/07:00am 13.2 5.8 3.9 53 4.2 WSW 32 37 17 20 1013.2 1013.2 5.8
26/06:30am 12.6 6.4 4.2 56 3.8 WSW 26 35 14 19 1013.2 1013.2 5.8
26/06:00am 12.2 5.7 4.8 60 3.4 WSW 28 35 15 19 1012.9 1012.9 5.8
26/05:30am 12.5 6.7 6.2 65 3.0 SW 26 32 14 17 1012.6 1012.6 5.8
26/05:00am 12.7 7.6 7.8 72 2.4 SSW 24 30 13 16 1012.4 1012.4 5.8
26/04:30am 12.9 8.3 9.6 80 1.7 SW 24 30 13 16 1012.2 1012.2 5.8
26/04:00am 13.1 7.9 10.4 84 1.4 SW 28 33 15 18 1012.1 1012.1 5.8
26/03:30am 13.2 8.9 10.7 85 1.3 SSW 24 30 13 16 1011.9 1011.9 5.8
26/03:00am 14.2 9.8 11.6 84 1.4 SSW 26 32 14 17 1011.5 1011.5 5.8
26/02:30am 14.3 10.2 11.3 82 1.6 SSW 24 32 13 17 1011.5 1011.5 5.8
26/02:00am 14.0 10.2 11.2 83 1.5 SSW 22 30 12 16 1011.6 1011.6 5.8
26/01:30am 13.9 10.8 11.7 86 1.2 SSW 19 24 10 13 1011.5 1011.5 5.8
26/01:00am 14.2 10.3 12.0 87 1.2 SSW 24 28 13 15 1011.7 1011.7 5.8
26/12:30am 14.2 10.6 12.0 87 1.2 SSW 22 30 12 16 1012.1 1012.1 5.8
26/12:00am 13.9 12.0 11.7 86 1.2 WSW 13 17 7 9 1011.8 1011.8 5.8
 
Date/Time
EST
Temp
°C
App
Temp
°C
Dew
Point
°C
Rel
Hum
%
Delta-T
°C
Wind Press
QNH
hPa
Press
MSL
hPa
Rain since
9am
mm
Dir  Spd
km/h
Gust
km/h
Spd
kts
Gust
kts
25/11:30pm 14.3 11.9 11.5 83 1.5 WSW 15 19 8 10 1011.7 1011.7 5.8
25/11:00pm 14.6 12.3 11.6 82 1.6 W 15 19 8 10 1011.5 1011.5 5.8
25/10:30pm 14.8 12.1 11.8 82 1.6 SW 17 22 9 12 1011.2 1011.2 5.8
25/10:00pm 15.1 12.8 11.8 81 1.8 SW 15 20 8 11 1011.2 1011.2 5.8
25/09:30pm 15.0 12.8 12.2 83 1.5 SW 15 17 8 9 1010.9 1010.9 5.8
25/09:00pm 15.2 12.6 12.1 82 1.7 SW 17 24 9 13 1010.8 1010.8 5.8
25/08:30pm 15.5 12.5 12.4 82 1.7 SW 20 26 11 14 1010.6 1010.6 5.8
25/08:00pm 15.9 13.5 12.6 81 1.8 SW 17 22 9 12 1010.2 1010.2 5.8
25/07:30pm 15.9 12.9 12.4 80 1.9 SSW 20 28 11 15 1009.8 1009.8 5.8
25/07:00pm 16.0 13.0 12.6 80 1.9 SSW 20 35 11 19 1009.5 1009.5 5.8
25/06:30pm 16.3 12.3 11.7 74 2.5 SSW 24 35 13 19 1009.1 1009.1 5.8
25/06:00pm 16.8 11.8 12.3 75 2.5 SSW 30 41 16 22 1008.5 1008.5 5.8
25/05:30pm 17.0 12.2 11.5 70 3.0 S 28 33 15 18 1008.2 1008.2 5.8
25/05:00pm 17.4 13.7 11.5 68 3.2 SSW 22 28 12 15 1007.8 1007.8 5.8
25/04:30pm 17.2 13.9 10.9 66 3.4 SSW 19 22 10 12 1007.3 1007.3 5.8
25/04:00pm 17.3 13.3 10.6 64 3.6 SSW 22 30 12 16 1006.7 1006.7 5.8
25/03:30pm 16.9 14.5 11.4 70 3.0 S 15 24 8 13 1006.3 1006.3 5.8
25/03:00pm 16.6 11.6 11.0 69 3.0 SSW 28 35 15 19 1006.2 1006.2 5.8
25/02:30pm 16.9 11.6 12.4 75 2.5 S 32 41 17 22 1005.9 1005.9 5.0
25/02:00pm 17.7 16.4 12.5 71 2.9 ESE 11 15 6 8 1005.3 1005.3 3.8
25/01:30pm 16.6 13.9 13.6 82 1.7 SE 20 26 11 14 1005.0 1005.0 3.8
25/01:28pm 16.2 13.5 13.4 83 1.6 SE 20 30 11 16 1005.1 1005.1 3.8
25/01:18pm 15.9 11.9 14.0 88 1.1 SSE 28 35 15 19 1005.4 1005.4 1.6
25/01:09pm 17.9 14.3 11.9 68 3.3 SSE 22 37 12 20 1004.8 1004.8 0.0
25/01:00pm 19.8 17.5 9.0 49 5.7 ESE 11 13 6 7 1004.6 1004.6 0.0
25/12:52pm 20.6 18.8 9.4 48 6.0 SE 9 15 5 8 1004.7 1004.7 0.0
25/12:30pm 20.2 17.9 10.4 53 5.3 SSW 13 17 7 9 1005.0 1005.0 0.0
25/12:00pm 20.0 16.6 9.0 49 5.8 WSW 17 22 9 12 1005.1 1005.1 0.0
25/11:30am 19.1 14.7 8.8 51 5.4 WSW 22 30 12 16 1005.2 1005.2 0.0
25/11:00am 19.2 15.5 9.4 53 5.2 WNW 19 28 10 15 1005.4 1005.4 0.0
25/10:30am 18.1 15.1 9.4 57 4.6 NW 15 20 8 11 1005.7 1005.7 0.0
25/10:00am 17.2 14.1 10.2 63 3.7 NW 17 24 9 13 1006.0 1006.0 0.0
25/09:30am 17.4 13.9 10.1 62 3.9 NW 19 26 10 14 1006.3 1006.3 0.0
25/09:00am 17.9 15.8 11.1 64 3.7 NW 13 15 7 8 1006.4 1006.4 4.2
25/08:30am 16.1 13.7 11.3 73 2.6 NW 15 20 8 11 1006.6 1006.6 4.2
25/08:00am 15.4 12.5 11.1 75 2.3 NW 17 20 9 11 1006.6 1006.6 4.2
25/07:30am 15.1 12.3 11.4 78 2.0 NNW 17 22 9 12 1006.5 1006.5 4.2
25/07:00am 14.7 12.3 11.3 80 1.8 N 15 19 8 10 1006.4 1006.4 4.2
25/06:30am 14.6 12.1 11.2 80 1.8 NNW 15 17 8 9 1006.5 1006.5 4.0
25/06:00am 15.2 13.9 12.5 84 1.5 N 11 13 6 7 1006.3 1006.3 3.0
25/05:30am 15.3 13.6 11.2 76 2.2 NNW 11 13 6 7 1006.2 1006.2 2.8
25/05:00am 15.7 13.6 11.2 74 2.4 NNW 13 15 7 8 1006.2 1006.2 2.6
25/04:30am 15.7 14.4 12.4 81 1.8 NNW 11 15 6 8 1006.3 1006.3 2.4
25/04:00am 16.0 15.2 14.1 88 1.1 NW 11 13 6 7 1006.3 1006.3 2.2
25/03:30am 15.8 13.9 14.2 90 0.9 NW 17 20 9 11 1006.3 1006.3 0.8
25/03:00am 16.4 14.2 14.5 88 1.1 NW 19 26 10 14 1006.1 1006.1 0.0
25/02:30am 17.2 16.5 14.4 83 1.6 NW 11 15 6 8 1005.5 1005.5 0.0
25/02:00am 17.2 16.4 14.1 82 1.8 NW 11 13 6 7 1005.6 1005.6 0.0
25/01:30am 17.6 17.1 13.9 79 2.1 NNW 9 9 5 5 1006.0 1006.0 0.0
25/01:00am 17.9 17.1 14.1 78 2.2 NW 11 13 6 7 1006.6 1006.6 0.0
25/12:30am 18.2 17.5 14.2 77 2.3 NNW 11 15 6 8 1007.1 1007.1 0.0
25/12:00am 18.5 17.7 14.0 75 2.6 N 11 13 6 7 1007.3 1007.3 0.0

Other Formats:

Comma delimited format used in spreadsheet applications
http://www.bom.gov.au/fwo/IDN60801/IDN60801.94767.axf

JavaScript Object Notation format (JSON) in row-major order
http://www.bom.gov.au/fwo/IDN60801/IDN60801.94767.json